sensor_id;sensor_type;location;lat;lon;timestamp;P1;durP1;ratioP1;P2;durP2;ratioP2
61358;SDS011;47228;46.762;23.598;2022-08-19T00:01:36;14.80;;;10.60;;
61358;SDS011;47228;46.762;23.598;2022-08-19T00:04:07;13.20;;;10.30;;
61358;SDS011;47228;46.762;23.598;2022-08-19T00:06:37;13.90;;;10.80;;
61358;SDS011;47228;46.762;23.598;2022-08-19T00:09:08;14.70;;;11.00;;
61358;SDS011;47228;46.762;23.598;2022-08-19T00:11:38;15.80;;;10.60;;
61358;SDS011;47228;46.762;23.598;2022-08-19T00:14:07;15.00;;;9.20;;
61358;SDS011;47228;46.762;23.598;2022-08-19T00:16:37;16.70;;;10.20;;
61358;SDS011;47228;46.762;23.598;2022-08-19T00:19:07;14.10;;;10.60;;
61358;SDS011;47228;46.762;23.598;2022-08-19T00:21:36;13.10;;;10.60;;
61358;SDS011;47228;46.762;23.598;2022-08-19T00:24:08;16.00;;;10.90;;
61358;SDS011;47228;46.762;23.598;2022-08-19T00:26:37;12.50;;;10.10;;
61358;SDS011;47228;46.762;23.598;2022-08-19T00:29:07;15.20;;;9.80;;
61358;SDS011;47228;46.762;23.598;2022-08-19T00:31:36;13.40;;;10.10;;
61358;SDS011;47228;46.762;23.598;2022-08-19T00:34:05;14.10;;;10.50;;
61358;SDS011;47228;46.762;23.598;2022-08-19T00:36:33;14.60;;;10.40;;
61358;SDS011;47228;46.762;23.598;2022-08-19T00:39:02;14.70;;;11.20;;
61358;SDS011;47228;46.762;23.598;2022-08-19T00:41:30;15.40;;;11.00;;
61358;SDS011;47228;46.762;23.598;2022-08-19T00:44:00;13.90;;;10.70;;
61358;SDS011;47228;46.762;23.598;2022-08-19T00:46:34;13.60;;;9.50;;
61358;SDS011;47228;46.762;23.598;2022-08-19T00:52:21;15.90;;;10.80;;
61358;SDS011;47228;46.762;23.598;2022-08-19T00:54:52;14.20;;;10.60;;
61358;SDS011;47228;46.762;23.598;2022-08-19T00:57:22;12.80;;;10.20;;
61358;SDS011;47228;46.762;23.598;2022-08-19T00:59:55;15.00;;;9.90;;
61358;SDS011;47228;46.762;23.598;2022-08-19T01:02:30;12.10;;;10.00;;
61358;SDS011;47228;46.762;23.598;2022-08-19T01:05:00;14.10;;;10.40;;
61358;SDS011;47228;46.762;23.598;2022-08-19T01:07:33;14.20;;;10.10;;
61358;SDS011;47228;46.762;23.598;2022-08-19T01:10:05;14.20;;;11.00;;
61358;SDS011;47228;46.762;23.598;2022-08-19T01:12:36;15.50;;;10.40;;
61358;SDS011;47228;46.762;23.598;2022-08-19T01:15:06;14.90;;;9.00;;
61358;SDS011;47228;46.762;23.598;2022-08-19T01:17:37;14.80;;;10.00;;
61358;SDS011;47228;46.762;23.598;2022-08-19T01:20:10;14.80;;;10.30;;
61358;SDS011;47228;46.762;23.598;2022-08-19T01:22:51;12.90;;;9.90;;
61358;SDS011;47228;46.762;23.598;2022-08-19T01:25:24;15.10;;;10.70;;
61358;SDS011;47228;46.762;23.598;2022-08-19T01:28:00;14.90;;;9.90;;
61358;SDS011;47228;46.762;23.598;2022-08-19T01:30:37;15.30;;;9.30;;
61358;SDS011;47228;46.762;23.598;2022-08-19T01:33:11;14.00;;;10.20;;
61358;SDS011;47228;46.762;23.598;2022-08-19T01:35:40;14.00;;;9.80;;
61358;SDS011;47228;46.762;23.598;2022-08-19T01:38:18;14.80;;;10.30;;
61358;SDS011;47228;46.762;23.598;2022-08-19T01:40:59;14.00;;;11.00;;
61358;SDS011;47228;46.762;23.598;2022-08-19T01:43:29;13.90;;;10.00;;
61358;SDS011;47228;46.762;23.598;2022-08-19T01:45:57;12.40;;;9.40;;
61358;SDS011;47228;46.762;23.598;2022-08-19T01:48:25;15.10;;;10.50;;
61358;SDS011;47228;46.762;23.598;2022-08-19T01:50:53;14.40;;;10.80;;
61358;SDS011;47228;46.762;23.598;2022-08-19T01:53:21;15.80;;;11.00;;
61358;SDS011;47228;46.762;23.598;2022-08-19T01:55:53;16.80;;;10.80;;
61358;SDS011;47228;46.762;23.598;2022-08-19T01:58:23;15.20;;;11.50;;
61358;SDS011;47228;46.762;23.598;2022-08-19T02:00:57;18.00;;;10.90;;
61358;SDS011;47228;46.762;23.598;2022-08-19T02:03:25;14.20;;;11.00;;
61358;SDS011;47228;46.762;23.598;2022-08-19T02:05:55;15.90;;;10.80;;
61358;SDS011;47228;46.762;23.598;2022-08-19T02:08:26;13.40;;;10.80;;
61358;SDS011;47228;46.762;23.598;2022-08-19T02:10:55;14.00;;;11.60;;
61358;SDS011;47228;46.762;23.598;2022-08-19T02:13:24;16.30;;;10.10;;
61358;SDS011;47228;46.762;23.598;2022-08-19T02:15:55;13.70;;;10.10;;
61358;SDS011;47228;46.762;23.598;2022-08-19T02:18:23;17.40;;;10.90;;
61358;SDS011;47228;46.762;23.598;2022-08-19T02:20:54;18.10;;;10.30;;
61358;SDS011;47228;46.762;23.598;2022-08-19T02:23:22;13.60;;;10.40;;
61358;SDS011;47228;46.762;23.598;2022-08-19T02:25:50;12.20;;;9.70;;
61358;SDS011;47228;46.762;23.598;2022-08-19T02:28:19;15.10;;;9.70;;
61358;SDS011;47228;46.762;23.598;2022-08-19T02:30:47;15.20;;;9.90;;
61358;SDS011;47228;46.762;23.598;2022-08-19T02:33:15;12.90;;;10.80;;
61358;SDS011;47228;46.762;23.598;2022-08-19T02:35:45;15.70;;;10.50;;
61358;SDS011;47228;46.762;23.598;2022-08-19T02:38:14;13.70;;;9.70;;
61358;SDS011;47228;46.762;23.598;2022-08-19T02:40:59;14.40;;;9.30;;
61358;SDS011;47228;46.762;23.598;2022-08-19T02:43:29;14.90;;;10.50;;
61358;SDS011;47228;46.762;23.598;2022-08-19T02:46:01;14.40;;;10.30;;
61358;SDS011;47228;46.762;23.598;2022-08-19T02:48:39;13.90;;;10.50;;
61358;SDS011;47228;46.762;23.598;2022-08-19T02:51:07;16.30;;;10.70;;
61358;SDS011;47228;46.762;23.598;2022-08-19T02:53:35;15.30;;;10.40;;
61358;SDS011;47228;46.762;23.598;2022-08-19T02:56:07;16.90;;;9.50;;
61358;SDS011;47228;46.762;23.598;2022-08-19T02:58:35;13.30;;;8.80;;
61358;SDS011;47228;46.762;23.598;2022-08-19T03:01:04;18.40;;;10.30;;
61358;SDS011;47228;46.762;23.598;2022-08-19T03:03:33;15.30;;;10.50;;
61358;SDS011;47228;46.762;23.598;2022-08-19T03:06:05;14.00;;;10.50;;
61358;SDS011;47228;46.762;23.598;2022-08-19T03:08:36;15.70;;;10.40;;
61358;SDS011;47228;46.762;23.598;2022-08-19T03:11:04;16.20;;;10.40;;
61358;SDS011;47228;46.762;23.598;2022-08-19T03:13:33;13.70;;;9.80;;
61358;SDS011;47228;46.762;23.598;2022-08-19T03:16:03;15.40;;;10.50;;
61358;SDS011;47228;46.762;23.598;2022-08-19T03:18:33;13.70;;;10.20;;
61358;SDS011;47228;46.762;23.598;2022-08-19T03:21:02;17.40;;;10.80;;
61358;SDS011;47228;46.762;23.598;2022-08-19T03:23:30;14.00;;;11.20;;
61358;SDS011;47228;46.762;23.598;2022-08-19T03:25:59;15.40;;;9.90;;
61358;SDS011;47228;46.762;23.598;2022-08-19T03:28:43;18.20;;;9.80;;
61358;SDS011;47228;46.762;23.598;2022-08-19T03:31:25;15.60;;;10.30;;
61358;SDS011;47228;46.762;23.598;2022-08-19T03:34:15;14.30;;;10.60;;
61358;SDS011;47228;46.762;23.598;2022-08-19T03:36:46;16.10;;;11.60;;
61358;SDS011;47228;46.762;23.598;2022-08-19T03:39:15;16.80;;;11.00;;
61358;SDS011;47228;46.762;23.598;2022-08-19T03:41:44;15.20;;;10.20;;
61358;SDS011;47228;46.762;23.598;2022-08-19T03:44:18;14.50;;;11.20;;
61358;SDS011;47228;46.762;23.598;2022-08-19T03:46:51;17.20;;;11.60;;
61358;SDS011;47228;46.762;23.598;2022-08-19T03:49:23;14.70;;;11.40;;
61358;SDS011;47228;46.762;23.598;2022-08-19T03:51:56;18.90;;;10.90;;
61358;SDS011;47228;46.762;23.598;2022-08-19T03:54:28;17.00;;;10.50;;
61358;SDS011;47228;46.762;23.598;2022-08-19T03:56:56;17.10;;;11.90;;
61358;SDS011;47228;46.762;23.598;2022-08-19T03:59:29;17.90;;;11.40;;
61358;SDS011;47228;46.762;23.598;2022-08-19T04:02:01;18.60;;;11.90;;
61358;SDS011;47228;46.762;23.598;2022-08-19T04:04:33;14.90;;;10.80;;
61358;SDS011;47228;46.762;23.598;2022-08-19T04:07:01;18.90;;;11.20;;
61358;SDS011;47228;46.762;23.598;2022-08-19T04:09:30;15.10;;;11.40;;
61358;SDS011;47228;46.762;23.598;2022-08-19T04:11:58;15.30;;;11.60;;
61358;SDS011;47228;46.762;23.598;2022-08-19T04:14:28;14.40;;;11.80;;
61358;SDS011;47228;46.762;23.598;2022-08-19T04:17:02;18.20;;;11.10;;
61358;SDS011;47228;46.762;23.598;2022-08-19T04:19:33;18.10;;;10.90;;
61358;SDS011;47228;46.762;23.598;2022-08-19T04:22:03;16.80;;;11.30;;
61358;SDS011;47228;46.762;23.598;2022-08-19T04:24:33;17.30;;;11.30;;
61358;SDS011;47228;46.762;23.598;2022-08-19T04:27:02;17.40;;;11.20;;
61358;SDS011;47228;46.762;23.598;2022-08-19T04:29:31;20.20;;;11.50;;
61358;SDS011;47228;46.762;23.598;2022-08-19T04:32:00;17.10;;;11.60;;
61358;SDS011;47228;46.762;23.598;2022-08-19T04:34:36;18.80;;;12.90;;
61358;SDS011;47228;46.762;23.598;2022-08-19T04:37:26;18.10;;;12.70;;
61358;SDS011;47228;46.762;23.598;2022-08-19T04:40:03;17.70;;;12.10;;
61358;SDS011;47228;46.762;23.598;2022-08-19T04:42:51;17.40;;;12.00;;
61358;SDS011;47228;46.762;23.598;2022-08-19T04:45:21;13.80;;;10.90;;
61358;SDS011;47228;46.762;23.598;2022-08-19T04:47:53;20.20;;;12.70;;
61358;SDS011;47228;46.762;23.598;2022-08-19T04:50:25;16.70;;;12.10;;
61358;SDS011;47228;46.762;23.598;2022-08-19T04:52:54;21.30;;;12.80;;
61358;SDS011;47228;46.762;23.598;2022-08-19T04:55:23;20.30;;;11.70;;
61358;SDS011;47228;46.762;23.598;2022-08-19T04:57:54;19.30;;;11.70;;
61358;SDS011;47228;46.762;23.598;2022-08-19T05:00:22;21.60;;;12.70;;
61358;SDS011;47228;46.762;23.598;2022-08-19T05:02:51;16.30;;;11.80;;
61358;SDS011;47228;46.762;23.598;2022-08-19T05:05:19;15.40;;;12.30;;
61358;SDS011;47228;46.762;23.598;2022-08-19T05:07:48;18.20;;;12.50;;
61358;SDS011;47228;46.762;23.598;2022-08-19T05:10:16;17.80;;;12.60;;
61358;SDS011;47228;46.762;23.598;2022-08-19T05:12:44;17.70;;;12.10;;
61358;SDS011;47228;46.762;23.598;2022-08-19T05:15:12;18.70;;;12.20;;
61358;SDS011;47228;46.762;23.598;2022-08-19T05:17:40;18.70;;;13.20;;
61358;SDS011;47228;46.762;23.598;2022-08-19T05:20:28;19.80;;;13.50;;
61358;SDS011;47228;46.762;23.598;2022-08-19T05:23:15;17.10;;;13.20;;
61358;SDS011;47228;46.762;23.598;2022-08-19T05:25:52;19.00;;;13.40;;
61358;SDS011;47228;46.762;23.598;2022-08-19T05:28:20;19.30;;;13.10;;
61358;SDS011;47228;46.762;23.598;2022-08-19T05:30:48;18.80;;;12.40;;
61358;SDS011;47228;46.762;23.598;2022-08-19T05:33:18;22.00;;;13.00;;
61358;SDS011;47228;46.762;23.598;2022-08-19T05:35:47;18.80;;;12.70;;
61358;SDS011;47228;46.762;23.598;2022-08-19T05:38:17;17.40;;;14.00;;
61358;SDS011;47228;46.762;23.598;2022-08-19T05:40:45;17.30;;;13.10;;
61358;SDS011;47228;46.762;23.598;2022-08-19T05:43:15;18.00;;;12.90;;
61358;SDS011;47228;46.762;23.598;2022-08-19T05:45:43;18.00;;;14.10;;
61358;SDS011;47228;46.762;23.598;2022-08-19T05:48:12;20.30;;;14.10;;
61358;SDS011;47228;46.762;23.598;2022-08-19T05:50:41;18.50;;;13.50;;
61358;SDS011;47228;46.762;23.598;2022-08-19T05:53:09;17.80;;;13.40;;
61358;SDS011;47228;46.762;23.598;2022-08-19T05:55:37;20.50;;;13.80;;
61358;SDS011;47228;46.762;23.598;2022-08-19T05:58:06;19.30;;;13.40;;
61358;SDS011;47228;46.762;23.598;2022-08-19T06:00:37;16.70;;;13.00;;
61358;SDS011;47228;46.762;23.598;2022-08-19T06:03:05;15.30;;;12.40;;
61358;SDS011;47228;46.762;23.598;2022-08-19T06:05:40;17.10;;;13.00;;
61358;SDS011;47228;46.762;23.598;2022-08-19T06:08:19;19.40;;;14.30;;
61358;SDS011;47228;46.762;23.598;2022-08-19T06:14:04;17.00;;;12.20;;
61358;SDS011;47228;46.762;23.598;2022-08-19T06:16:44;19.20;;;12.80;;
61358;SDS011;47228;46.762;23.598;2022-08-19T06:19:14;18.60;;;11.80;;
61358;SDS011;47228;46.762;23.598;2022-08-19T06:21:45;19.10;;;12.40;;
61358;SDS011;47228;46.762;23.598;2022-08-19T06:24:16;17.30;;;13.50;;
61358;SDS011;47228;46.762;23.598;2022-08-19T06:26:47;23.50;;;14.90;;
61358;SDS011;47228;46.762;23.598;2022-08-19T06:29:17;22.40;;;13.90;;
61358;SDS011;47228;46.762;23.598;2022-08-19T06:31:51;20.50;;;14.20;;
61358;SDS011;47228;46.762;23.598;2022-08-19T06:34:22;22.70;;;14.00;;
61358;SDS011;47228;46.762;23.598;2022-08-19T06:36:51;22.30;;;13.60;;
61358;SDS011;47228;46.762;23.598;2022-08-19T06:39:21;22.20;;;14.50;;
61358;SDS011;47228;46.762;23.598;2022-08-19T06:41:53;23.90;;;14.40;;
61358;SDS011;47228;46.762;23.598;2022-08-19T06:44:29;20.60;;;14.70;;
61358;SDS011;47228;46.762;23.598;2022-08-19T06:47:11;22.20;;;14.20;;
61358;SDS011;47228;46.762;23.598;2022-08-19T06:49:55;29.60;;;15.60;;
61358;SDS011;47228;46.762;23.598;2022-08-19T06:52:33;27.40;;;14.70;;
61358;SDS011;47228;46.762;23.598;2022-08-19T06:55:05;22.90;;;15.10;;
61358;SDS011;47228;46.762;23.598;2022-08-19T06:57:33;25.90;;;14.90;;
61358;SDS011;47228;46.762;23.598;2022-08-19T07:00:02;26.20;;;14.00;;
61358;SDS011;47228;46.762;23.598;2022-08-19T07:02:40;22.70;;;13.70;;
61358;SDS011;47228;46.762;23.598;2022-08-19T07:05:22;30.30;;;15.70;;
61358;SDS011;47228;46.762;23.598;2022-08-19T07:07:50;23.10;;;13.80;;
61358;SDS011;47228;46.762;23.598;2022-08-19T07:10:18;24.10;;;13.90;;
61358;SDS011;47228;46.762;23.598;2022-08-19T07:12:47;29.20;;;14.60;;
61358;SDS011;47228;46.762;23.598;2022-08-19T07:15:16;25.50;;;13.90;;
61358;SDS011;47228;46.762;23.598;2022-08-19T07:17:45;23.30;;;14.10;;
61358;SDS011;47228;46.762;23.598;2022-08-19T07:20:19;24.00;;;12.40;;
61358;SDS011;47228;46.762;23.598;2022-08-19T07:22:47;24.20;;;14.70;;
61358;SDS011;47228;46.762;23.598;2022-08-19T07:25:16;26.20;;;13.10;;
61358;SDS011;47228;46.762;23.598;2022-08-19T07:27:48;23.90;;;13.10;;
61358;SDS011;47228;46.762;23.598;2022-08-19T07:30:21;21.40;;;12.40;;
61358;SDS011;47228;46.762;23.598;2022-08-19T07:32:53;20.20;;;12.40;;
61358;SDS011;47228;46.762;23.598;2022-08-19T07:35:21;17.40;;;11.30;;
61358;SDS011;47228;46.762;23.598;2022-08-19T07:37:51;21.00;;;12.00;;
61358;SDS011;47228;46.762;23.598;2022-08-19T07:40:20;15.80;;;11.80;;
61358;SDS011;47228;46.762;23.598;2022-08-19T07:42:49;18.70;;;11.40;;
61358;SDS011;47228;46.762;23.598;2022-08-19T07:45:17;17.10;;;11.70;;
61358;SDS011;47228;46.762;23.598;2022-08-19T07:47:45;17.00;;;10.60;;
61358;SDS011;47228;46.762;23.598;2022-08-19T07:50:18;16.10;;;10.70;;
61358;SDS011;47228;46.762;23.598;2022-08-19T07:52:48;18.00;;;10.60;;
61358;SDS011;47228;46.762;23.598;2022-08-19T07:55:18;15.40;;;10.70;;
61358;SDS011;47228;46.762;23.598;2022-08-19T07:58:07;14.50;;;9.90;;
61358;SDS011;47228;46.762;23.598;2022-08-19T08:00:35;17.50;;;10.30;;
61358;SDS011;47228;46.762;23.598;2022-08-19T08:03:03;13.30;;;9.10;;
61358;SDS011;47228;46.762;23.598;2022-08-19T08:05:31;14.90;;;9.40;;
61358;SDS011;47228;46.762;23.598;2022-08-19T08:08:18;14.20;;;8.90;;
61358;SDS011;47228;46.762;23.598;2022-08-19T08:11:19;11.40;;;8.90;;
61358;SDS011;47228;46.762;23.598;2022-08-19T08:13:50;12.70;;;8.10;;
61358;SDS011;47228;46.762;23.598;2022-08-19T08:16:36;14.50;;;8.80;;
61358;SDS011;47228;46.762;23.598;2022-08-19T08:19:14;12.70;;;8.60;;
61358;SDS011;47228;46.762;23.598;2022-08-19T08:21:53;11.20;;;8.30;;
61358;SDS011;47228;46.762;23.598;2022-08-19T08:24:23;10.20;;;8.10;;
61358;SDS011;47228;46.762;23.598;2022-08-19T08:26:55;11.50;;;8.10;;
61358;SDS011;47228;46.762;23.598;2022-08-19T08:29:26;10.60;;;7.70;;
61358;SDS011;47228;46.762;23.598;2022-08-19T08:32:02;11.60;;;7.80;;
61358;SDS011;47228;46.762;23.598;2022-08-19T08:34:41;13.30;;;7.50;;
61358;SDS011;47228;46.762;23.598;2022-08-19T08:37:10;10.90;;;7.50;;
61358;SDS011;47228;46.762;23.598;2022-08-19T08:39:38;8.80;;;7.20;;
61358;SDS011;47228;46.762;23.598;2022-08-19T08:42:08;8.90;;;6.50;;
61358;SDS011;47228;46.762;23.598;2022-08-19T08:45:22;8.10;;;6.40;;
61358;SDS011;47228;46.762;23.598;2022-08-19T08:47:45;8.60;;;6.90;;
61358;SDS011;47228;46.762;23.598;2022-08-19T08:53:05;10.50;;;6.70;;
61358;SDS011;47228;46.762;23.598;2022-08-19T08:55:35;8.60;;;6.10;;
61358;SDS011;47228;46.762;23.598;2022-08-19T08:58:05;8.70;;;5.90;;
61358;SDS011;47228;46.762;23.598;2022-08-19T09:00:45;8.50;;;5.50;;
61358;SDS011;47228;46.762;23.598;2022-08-19T09:03:20;9.60;;;6.50;;
61358;SDS011;47228;46.762;23.598;2022-08-19T09:06:06;8.20;;;6.10;;
61358;SDS011;47228;46.762;23.598;2022-08-19T09:08:40;9.00;;;5.80;;
61358;SDS011;47228;46.762;23.598;2022-08-19T09:17:21;11.00;;;6.60;;
61358;SDS011;47228;46.762;23.598;2022-08-19T09:19:57;10.00;;;7.10;;
61358;SDS011;47228;46.762;23.598;2022-08-19T09:22:39;8.70;;;6.40;;
61358;SDS011;47228;46.762;23.598;2022-08-19T09:25:14;8.20;;;5.70;;
61358;SDS011;47228;46.762;23.598;2022-08-19T09:27:53;8.30;;;5.90;;
61358;SDS011;47228;46.762;23.598;2022-08-19T09:30:31;10.00;;;6.00;;
61358;SDS011;47228;46.762;23.598;2022-08-19T09:33:02;9.60;;;5.70;;
61358;SDS011;47228;46.762;23.598;2022-08-19T09:35:30;8.00;;;5.60;;
61358;SDS011;47228;46.762;23.598;2022-08-19T09:38:16;7.90;;;5.40;;
61358;SDS011;47228;46.762;23.598;2022-08-19T09:40:44;11.00;;;5.90;;
61358;SDS011;47228;46.762;23.598;2022-08-19T09:43:12;9.10;;;5.90;;
61358;SDS011;47228;46.762;23.598;2022-08-19T09:45:40;8.80;;;5.90;;
61358;SDS011;47228;46.762;23.598;2022-08-19T09:48:08;9.50;;;5.40;;
61358;SDS011;47228;46.762;23.598;2022-08-19T09:50:45;9.40;;;6.40;;
61358;SDS011;47228;46.762;23.598;2022-08-19T09:53:19;9.90;;;6.60;;
61358;SDS011;47228;46.762;23.598;2022-08-19T09:55:54;8.70;;;5.90;;
61358;SDS011;47228;46.762;23.598;2022-08-19T09:58:23;10.10;;;6.20;;
61358;SDS011;47228;46.762;23.598;2022-08-19T10:00:55;9.10;;;6.00;;
61358;SDS011;47228;46.762;23.598;2022-08-19T10:03:26;9.70;;;6.10;;
61358;SDS011;47228;46.762;23.598;2022-08-19T10:05:57;8.80;;;5.80;;
61358;SDS011;47228;46.762;23.598;2022-08-19T10:08:29;9.10;;;6.00;;
61358;SDS011;47228;46.762;23.598;2022-08-19T10:11:02;8.60;;;5.30;;
61358;SDS011;47228;46.762;23.598;2022-08-19T10:13:51;10.90;;;5.10;;
61358;SDS011;47228;46.762;23.598;2022-08-19T10:16:21;7.50;;;5.10;;
61358;SDS011;47228;46.762;23.598;2022-08-19T10:18:57;9.10;;;5.10;;
61358;SDS011;47228;46.762;23.598;2022-08-19T10:21:31;9.20;;;4.80;;
61358;SDS011;47228;46.762;23.598;2022-08-19T10:24:03;7.70;;;4.90;;
61358;SDS011;47228;46.762;23.598;2022-08-19T10:26:37;9.90;;;5.10;;
61358;SDS011;47228;46.762;23.598;2022-08-19T10:29:07;6.50;;;4.90;;
61358;SDS011;47228;46.762;23.598;2022-08-19T10:31:35;9.20;;;5.10;;
61358;SDS011;47228;46.762;23.598;2022-08-19T10:34:24;11.40;;;5.10;;
61358;SDS011;47228;46.762;23.598;2022-08-19T10:36:55;6.50;;;4.50;;
61358;SDS011;47228;46.762;23.598;2022-08-19T10:39:29;7.50;;;4.60;;
61358;SDS011;47228;46.762;23.598;2022-08-19T10:42:07;8.60;;;5.00;;
61358;SDS011;47228;46.762;23.598;2022-08-19T10:44:38;7.60;;;5.10;;
61358;SDS011;47228;46.762;23.598;2022-08-19T10:47:07;6.20;;;5.00;;
61358;SDS011;47228;46.762;23.598;2022-08-19T10:49:51;7.10;;;4.50;;
61358;SDS011;47228;46.762;23.598;2022-08-19T10:52:40;9.20;;;4.80;;
61358;SDS011;47228;46.762;23.598;2022-08-19T10:55:18;6.60;;;4.40;;
61358;SDS011;47228;46.762;23.598;2022-08-19T10:58:14;9.10;;;4.40;;
61358;SDS011;47228;46.762;23.598;2022-08-19T11:00:50;8.20;;;4.60;;
61358;SDS011;47228;46.762;23.598;2022-08-19T11:03:23;7.50;;;4.50;;
61358;SDS011;47228;46.762;23.598;2022-08-19T11:06:04;7.50;;;4.60;;
61358;SDS011;47228;46.762;23.598;2022-08-19T11:08:34;7.60;;;4.30;;
61358;SDS011;47228;46.762;23.598;2022-08-19T11:11:06;6.90;;;4.30;;
61358;SDS011;47228;46.762;23.598;2022-08-19T11:13:36;5.90;;;4.00;;
61358;SDS011;47228;46.762;23.598;2022-08-19T11:16:10;5.80;;;4.50;;
61358;SDS011;47228;46.762;23.598;2022-08-19T11:18:43;6.40;;;4.40;;
61358;SDS011;47228;46.762;23.598;2022-08-19T11:23:45;5.50;;;4.60;;
61358;SDS011;47228;46.762;23.598;2022-08-19T11:26:15;9.30;;;4.60;;
61358;SDS011;47228;46.762;23.598;2022-08-19T11:28:43;8.40;;;4.60;;
61358;SDS011;47228;46.762;23.598;2022-08-19T11:31:13;9.40;;;4.60;;
61358;SDS011;47228;46.762;23.598;2022-08-19T11:33:43;6.00;;;3.90;;
61358;SDS011;47228;46.762;23.598;2022-08-19T11:36:14;4.50;;;3.80;;
61358;SDS011;47228;46.762;23.598;2022-08-19T11:38:47;6.40;;;4.20;;
61358;SDS011;47228;46.762;23.598;2022-08-19T11:41:17;6.00;;;3.70;;
61358;SDS011;47228;46.762;23.598;2022-08-19T11:43:46;8.30;;;5.40;;
61358;SDS011;47228;46.762;23.598;2022-08-19T11:46:15;5.80;;;4.20;;
61358;SDS011;47228;46.762;23.598;2022-08-19T11:48:44;7.10;;;4.60;;
61358;SDS011;47228;46.762;23.598;2022-08-19T11:51:14;6.80;;;4.10;;
61358;SDS011;47228;46.762;23.598;2022-08-19T11:53:45;5.50;;;3.90;;
61358;SDS011;47228;46.762;23.598;2022-08-19T11:56:13;6.60;;;4.00;;
61358;SDS011;47228;46.762;23.598;2022-08-19T11:58:41;11.00;;;4.90;;
61358;SDS011;47228;46.762;23.598;2022-08-19T12:01:14;6.80;;;4.50;;
61358;SDS011;47228;46.762;23.598;2022-08-19T12:03:44;6.80;;;4.20;;
61358;SDS011;47228;46.762;23.598;2022-08-19T12:06:16;11.80;;;4.90;;
61358;SDS011;47228;46.762;23.598;2022-08-19T12:08:47;7.20;;;4.30;;
61358;SDS011;47228;46.762;23.598;2022-08-19T12:11:15;5.60;;;4.10;;
61358;SDS011;47228;46.762;23.598;2022-08-19T12:13:43;7.30;;;4.00;;
61358;SDS011;47228;46.762;23.598;2022-08-19T12:16:15;8.40;;;4.20;;
61358;SDS011;47228;46.762;23.598;2022-08-19T12:18:46;6.70;;;4.20;;
61358;SDS011;47228;46.762;23.598;2022-08-19T12:21:15;5.10;;;3.90;;
61358;SDS011;47228;46.762;23.598;2022-08-19T12:23:44;7.20;;;3.90;;
61358;SDS011;47228;46.762;23.598;2022-08-19T12:26:12;6.80;;;4.50;;
61358;SDS011;47228;46.762;23.598;2022-08-19T12:28:40;7.20;;;4.50;;
61358;SDS011;47228;46.762;23.598;2022-08-19T12:31:09;7.50;;;4.00;;
61358;SDS011;47228;46.762;23.598;2022-08-19T12:33:41;7.70;;;4.10;;
61358;SDS011;47228;46.762;23.598;2022-08-19T12:36:11;6.50;;;4.40;;
61358;SDS011;47228;46.762;23.598;2022-08-19T12:38:41;5.90;;;3.90;;
61358;SDS011;47228;46.762;23.598;2022-08-19T12:41:10;7.40;;;4.10;;
61358;SDS011;47228;46.762;23.598;2022-08-19T12:43:40;7.30;;;4.40;;
61358;SDS011;47228;46.762;23.598;2022-08-19T12:46:09;7.20;;;4.20;;
61358;SDS011;47228;46.762;23.598;2022-08-19T12:48:39;6.20;;;4.50;;
61358;SDS011;47228;46.762;23.598;2022-08-19T12:51:10;6.00;;;4.00;;
61358;SDS011;47228;46.762;23.598;2022-08-19T12:53:41;4.90;;;4.20;;
61358;SDS011;47228;46.762;23.598;2022-08-19T12:56:10;7.30;;;4.30;;
61358;SDS011;47228;46.762;23.598;2022-08-19T12:58:42;7.80;;;4.50;;
61358;SDS011;47228;46.762;23.598;2022-08-19T13:01:19;6.40;;;4.50;;
61358;SDS011;47228;46.762;23.598;2022-08-19T13:03:50;6.00;;;4.30;;
61358;SDS011;47228;46.762;23.598;2022-08-19T13:06:20;5.60;;;4.40;;
61358;SDS011;47228;46.762;23.598;2022-08-19T13:08:48;6.30;;;4.10;;
61358;SDS011;47228;46.762;23.598;2022-08-19T13:11:19;7.50;;;4.40;;
61358;SDS011;47228;46.762;23.598;2022-08-19T13:13:48;7.80;;;4.20;;
61358;SDS011;47228;46.762;23.598;2022-08-19T13:16:18;5.30;;;4.30;;
61358;SDS011;47228;46.762;23.598;2022-08-19T13:18:48;7.40;;;4.60;;
61358;SDS011;47228;46.762;23.598;2022-08-19T13:21:20;7.90;;;4.10;;
61358;SDS011;47228;46.762;23.598;2022-08-19T13:23:51;5.90;;;4.00;;
61358;SDS011;47228;46.762;23.598;2022-08-19T13:26:20;6.50;;;4.60;;
61358;SDS011;47228;46.762;23.598;2022-08-19T13:28:49;9.00;;;4.30;;
61358;SDS011;47228;46.762;23.598;2022-08-19T13:31:39;7.50;;;4.20;;
61358;SDS011;47228;46.762;23.598;2022-08-19T13:34:31;6.70;;;4.70;;
61358;SDS011;47228;46.762;23.598;2022-08-19T13:37:03;6.30;;;4.40;;
61358;SDS011;47228;46.762;23.598;2022-08-19T13:39:32;6.90;;;4.50;;
61358;SDS011;47228;46.762;23.598;2022-08-19T13:42:01;5.50;;;4.20;;
61358;SDS011;47228;46.762;23.598;2022-08-19T13:44:31;7.10;;;4.10;;
61358;SDS011;47228;46.762;23.598;2022-08-19T13:47:00;8.70;;;4.50;;
61358;SDS011;47228;46.762;23.598;2022-08-19T13:49:34;7.10;;;4.30;;
61358;SDS011;47228;46.762;23.598;2022-08-19T13:52:04;7.20;;;4.00;;
61358;SDS011;47228;46.762;23.598;2022-08-19T13:54:33;7.00;;;4.50;;
61358;SDS011;47228;46.762;23.598;2022-08-19T13:57:01;9.20;;;4.60;;
61358;SDS011;47228;46.762;23.598;2022-08-19T13:59:29;6.00;;;4.30;;
61358;SDS011;47228;46.762;23.598;2022-08-19T14:01:58;6.20;;;4.70;;
61358;SDS011;47228;46.762;23.598;2022-08-19T14:04:27;7.30;;;4.30;;
61358;SDS011;47228;46.762;23.598;2022-08-19T14:06:55;10.50;;;5.30;;
61358;SDS011;47228;46.762;23.598;2022-08-19T14:09:23;8.70;;;5.80;;
61358;SDS011;47228;46.762;23.598;2022-08-19T14:11:51;9.50;;;5.30;;
61358;SDS011;47228;46.762;23.598;2022-08-19T14:14:19;8.10;;;5.00;;
61358;SDS011;47228;46.762;23.598;2022-08-19T14:16:47;7.60;;;4.70;;
61358;SDS011;47228;46.762;23.598;2022-08-19T14:19:16;7.10;;;4.60;;
61358;SDS011;47228;46.762;23.598;2022-08-19T14:21:44;8.20;;;4.10;;
61358;SDS011;47228;46.762;23.598;2022-08-19T14:24:12;6.70;;;4.20;;
61358;SDS011;47228;46.762;23.598;2022-08-19T14:26:41;8.40;;;4.30;;
61358;SDS011;47228;46.762;23.598;2022-08-19T14:29:09;7.40;;;4.00;;
61358;SDS011;47228;46.762;23.598;2022-08-19T14:31:37;6.90;;;4.30;;
61358;SDS011;47228;46.762;23.598;2022-08-19T14:34:08;7.00;;;4.30;;
61358;SDS011;47228;46.762;23.598;2022-08-19T14:36:37;7.80;;;4.40;;
61358;SDS011;47228;46.762;23.598;2022-08-19T14:39:05;8.60;;;4.30;;
61358;SDS011;47228;46.762;23.598;2022-08-19T14:41:34;7.80;;;4.60;;
61358;SDS011;47228;46.762;23.598;2022-08-19T14:44:02;8.80;;;4.30;;
61358;SDS011;47228;46.762;23.598;2022-08-19T14:46:30;7.30;;;4.70;;
61358;SDS011;47228;46.762;23.598;2022-08-19T14:48:59;6.90;;;4.20;;
61358;SDS011;47228;46.762;23.598;2022-08-19T14:51:27;6.00;;;4.10;;
61358;SDS011;47228;46.762;23.598;2022-08-19T14:53:55;7.60;;;4.30;;
61358;SDS011;47228;46.762;23.598;2022-08-19T14:56:25;5.20;;;4.10;;
61358;SDS011;47228;46.762;23.598;2022-08-19T15:01:28;7.20;;;3.90;;
61358;SDS011;47228;46.762;23.598;2022-08-19T15:03:56;8.10;;;3.90;;
61358;SDS011;47228;46.762;23.598;2022-08-19T15:06:24;6.70;;;3.80;;
61358;SDS011;47228;46.762;23.598;2022-08-19T15:08:53;7.90;;;4.30;;